sensor_id;sensor_type;location;lat;lon;timestamp;P1;durP1;ratioP1;P2;durP2;ratioP2
28483;SDS011;15704;48.834;8.736;2023-07-20T00:00:05;4.00;;;1.83;;
28483;SDS011;15704;48.834;8.736;2023-07-20T00:02:33;5.40;;;1.80;;
28483;SDS011;15704;48.834;8.736;2023-07-20T00:05:00;4.75;;;1.77;;
28483;SDS011;15704;48.834;8.736;2023-07-20T00:07:27;4.80;;;1.95;;
28483;SDS011;15704;48.834;8.736;2023-07-20T00:09:53;2.92;;;1.90;;
28483;SDS011;15704;48.834;8.736;2023-07-20T00:12:20;6.45;;;1.90;;
28483;SDS011;15704;48.834;8.736;2023-07-20T00:14:47;6.47;;;1.77;;
28483;SDS011;15704;48.834;8.736;2023-07-20T00:17:13;5.45;;;2.13;;
28483;SDS011;15704;48.834;8.736;2023-07-20T00:19:40;3.97;;;2.00;;
28483;SDS011;15704;48.834;8.736;2023-07-20T00:22:07;4.50;;;1.95;;
28483;SDS011;15704;48.834;8.736;2023-07-20T00:24:34;3.47;;;2.17;;
28483;SDS011;15704;48.834;8.736;2023-07-20T00:27:01;5.72;;;1.95;;
28483;SDS011;15704;48.834;8.736;2023-07-20T00:29:29;4.05;;;1.73;;
28483;SDS011;15704;48.834;8.736;2023-07-20T00:31:55;7.95;;;2.03;;
28483;SDS011;15704;48.834;8.736;2023-07-20T00:34:22;7.65;;;2.35;;
28483;SDS011;15704;48.834;8.736;2023-07-20T00:36:49;6.25;;;1.85;;
28483;SDS011;15704;48.834;8.736;2023-07-20T00:39:16;3.75;;;1.83;;
28483;SDS011;15704;48.834;8.736;2023-07-20T00:41:42;7.28;;;2.60;;
28483;SDS011;15704;48.834;8.736;2023-07-20T00:44:09;4.20;;;1.80;;
28483;SDS011;15704;48.834;8.736;2023-07-20T00:46:36;3.80;;;2.03;;
28483;SDS011;15704;48.834;8.736;2023-07-20T00:49:03;9.05;;;2.28;;
28483;SDS011;15704;48.834;8.736;2023-07-20T00:51:30;5.22;;;2.15;;
28483;SDS011;15704;48.834;8.736;2023-07-20T00:53:57;4.70;;;2.10;;
28483;SDS011;15704;48.834;8.736;2023-07-20T00:56:24;4.72;;;2.30;;
28483;SDS011;15704;48.834;8.736;2023-07-20T00:58:52;4.28;;;1.92;;
28483;SDS011;15704;48.834;8.736;2023-07-20T01:01:18;5.90;;;2.78;;
28483;SDS011;15704;48.834;8.736;2023-07-20T01:03:46;8.98;;;2.13;;
28483;SDS011;15704;48.834;8.736;2023-07-20T01:09:26;3.25;;;2.00;;
28483;SDS011;15704;48.834;8.736;2023-07-20T01:12:02;5.38;;;2.20;;
28483;SDS011;15704;48.834;8.736;2023-07-20T01:14:34;4.00;;;2.05;;
28483;SDS011;15704;48.834;8.736;2023-07-20T01:17:01;3.92;;;1.95;;
28483;SDS011;15704;48.834;8.736;2023-07-20T01:19:28;6.90;;;2.35;;
28483;SDS011;15704;48.834;8.736;2023-07-20T01:31:09;4.32;;;2.10;;
28483;SDS011;15704;48.834;8.736;2023-07-20T01:33:53;5.55;;;2.20;;
28483;SDS011;15704;48.834;8.736;2023-07-20T01:36:22;4.93;;;2.05;;
28483;SDS011;15704;48.834;8.736;2023-07-20T01:38:51;4.18;;;2.20;;
28483;SDS011;15704;48.834;8.736;2023-07-20T01:41:18;4.25;;;2.17;;
28483;SDS011;15704;48.834;8.736;2023-07-20T01:43:46;4.03;;;1.58;;
28483;SDS011;15704;48.834;8.736;2023-07-20T01:46:13;6.55;;;1.98;;
28483;SDS011;15704;48.834;8.736;2023-07-20T01:48:40;4.03;;;1.90;;
28483;SDS011;15704;48.834;8.736;2023-07-20T01:51:07;10.20;;;2.05;;
28483;SDS011;15704;48.834;8.736;2023-07-20T01:53:34;6.60;;;1.55;;
28483;SDS011;15704;48.834;8.736;2023-07-20T01:56:01;16.85;;;2.97;;
28483;SDS011;15704;48.834;8.736;2023-07-20T01:58:27;3.88;;;1.85;;
28483;SDS011;15704;48.834;8.736;2023-07-20T02:00:54;6.47;;;1.80;;
28483;SDS011;15704;48.834;8.736;2023-07-20T02:03:21;3.53;;;2.20;;
28483;SDS011;15704;48.834;8.736;2023-07-20T02:05:50;3.85;;;1.92;;
28483;SDS011;15704;48.834;8.736;2023-07-20T02:08:17;9.02;;;1.85;;
28483;SDS011;15704;48.834;8.736;2023-07-20T02:10:47;2.83;;;1.77;;
28483;SDS011;15704;48.834;8.736;2023-07-20T02:13:14;3.50;;;1.60;;
28483;SDS011;15704;48.834;8.736;2023-07-20T02:15:41;3.78;;;1.77;;
28483;SDS011;15704;48.834;8.736;2023-07-20T02:18:09;5.80;;;1.80;;
28483;SDS011;15704;48.834;8.736;2023-07-20T02:20:36;5.03;;;1.75;;
28483;SDS011;15704;48.834;8.736;2023-07-20T02:23:02;7.68;;;1.60;;
28483;SDS011;15704;48.834;8.736;2023-07-20T02:25:29;3.92;;;1.90;;
28483;SDS011;15704;48.834;8.736;2023-07-20T02:27:56;4.53;;;2.03;;
28483;SDS011;15704;48.834;8.736;2023-07-20T02:30:23;4.90;;;1.90;;
28483;SDS011;15704;48.834;8.736;2023-07-20T02:32:50;6.43;;;1.98;;
28483;SDS011;15704;48.834;8.736;2023-07-20T02:35:17;6.80;;;1.63;;
28483;SDS011;15704;48.834;8.736;2023-07-20T02:37:44;8.40;;;1.88;;
28483;SDS011;15704;48.834;8.736;2023-07-20T02:40:11;4.72;;;1.73;;
28483;SDS011;15704;48.834;8.736;2023-07-20T02:42:38;4.07;;;1.92;;
28483;SDS011;15704;48.834;8.736;2023-07-20T02:45:05;3.35;;;2.03;;
28483;SDS011;15704;48.834;8.736;2023-07-20T02:47:32;2.78;;;1.77;;
28483;SDS011;15704;48.834;8.736;2023-07-20T02:50:00;5.15;;;2.08;;
28483;SDS011;15704;48.834;8.736;2023-07-20T02:52:26;4.63;;;2.00;;
28483;SDS011;15704;48.834;8.736;2023-07-20T02:54:53;4.20;;;1.65;;
28483;SDS011;15704;48.834;8.736;2023-07-20T02:57:20;6.78;;;2.45;;
28483;SDS011;15704;48.834;8.736;2023-07-20T02:59:47;5.25;;;2.10;;
28483;SDS011;15704;48.834;8.736;2023-07-20T03:02:14;6.53;;;1.88;;
28483;SDS011;15704;48.834;8.736;2023-07-20T03:04:41;3.85;;;2.05;;
28483;SDS011;15704;48.834;8.736;2023-07-20T03:07:08;8.38;;;2.10;;
28483;SDS011;15704;48.834;8.736;2023-07-20T03:09:34;4.90;;;1.73;;
28483;SDS011;15704;48.834;8.736;2023-07-20T03:12:01;5.47;;;2.28;;
28483;SDS011;15704;48.834;8.736;2023-07-20T03:14:30;12.27;;;2.00;;
28483;SDS011;15704;48.834;8.736;2023-07-20T03:16:57;11.15;;;2.10;;
28483;SDS011;15704;48.834;8.736;2023-07-20T03:19:24;4.57;;;1.85;;
28483;SDS011;15704;48.834;8.736;2023-07-20T03:21:51;9.00;;;2.25;;
28483;SDS011;15704;48.834;8.736;2023-07-20T03:24:17;12.13;;;2.05;;
28483;SDS011;15704;48.834;8.736;2023-07-20T03:26:44;2.95;;;1.73;;
28483;SDS011;15704;48.834;8.736;2023-07-20T03:29:11;4.55;;;1.90;;
28483;SDS011;15704;48.834;8.736;2023-07-20T03:31:37;4.55;;;1.80;;
28483;SDS011;15704;48.834;8.736;2023-07-20T03:34:05;6.32;;;2.00;;
28483;SDS011;15704;48.834;8.736;2023-07-20T03:36:32;3.35;;;1.90;;
28483;SDS011;15704;48.834;8.736;2023-07-20T03:38:59;6.45;;;1.80;;
28483;SDS011;15704;48.834;8.736;2023-07-20T03:41:25;5.88;;;2.10;;
28483;SDS011;15704;48.834;8.736;2023-07-20T03:43:52;4.00;;;2.28;;
28483;SDS011;15704;48.834;8.736;2023-07-20T03:46:19;6.95;;;1.67;;
28483;SDS011;15704;48.834;8.736;2023-07-20T03:48:46;4.43;;;2.03;;
28483;SDS011;15704;48.834;8.736;2023-07-20T03:51:13;5.05;;;2.20;;
28483;SDS011;15704;48.834;8.736;2023-07-20T03:53:40;3.15;;;1.77;;
28483;SDS011;15704;48.834;8.736;2023-07-20T03:56:07;4.88;;;2.15;;
28483;SDS011;15704;48.834;8.736;2023-07-20T03:58:33;6.63;;;2.28;;
28483;SDS011;15704;48.834;8.736;2023-07-20T04:01:00;3.60;;;1.90;;
28483;SDS011;15704;48.834;8.736;2023-07-20T04:03:27;10.43;;;1.95;;
28483;SDS011;15704;48.834;8.736;2023-07-20T04:05:54;5.35;;;2.53;;
28483;SDS011;15704;48.834;8.736;2023-07-20T04:08:23;2.83;;;1.92;;
28483;SDS011;15704;48.834;8.736;2023-07-20T04:10:50;4.72;;;2.10;;
28483;SDS011;15704;48.834;8.736;2023-07-20T04:13:17;3.38;;;1.80;;
28483;SDS011;15704;48.834;8.736;2023-07-20T04:15:45;12.05;;;2.28;;
28483;SDS011;15704;48.834;8.736;2023-07-20T04:18:11;9.45;;;2.60;;
28483;SDS011;15704;48.834;8.736;2023-07-20T04:20:38;14.95;;;3.25;;
28483;SDS011;15704;48.834;8.736;2023-07-20T04:23:05;4.32;;;1.80;;
28483;SDS011;15704;48.834;8.736;2023-07-20T04:25:32;8.20;;;2.00;;
28483;SDS011;15704;48.834;8.736;2023-07-20T04:28:08;8.60;;;1.70;;
28483;SDS011;15704;48.834;8.736;2023-07-20T04:30:36;9.00;;;2.10;;
28483;SDS011;15704;48.834;8.736;2023-07-20T04:33:03;10.05;;;1.90;;
28483;SDS011;15704;48.834;8.736;2023-07-20T04:40:41;3.00;;;1.50;;
28483;SDS011;15704;48.834;8.736;2023-07-20T04:43:09;4.63;;;2.30;;
28483;SDS011;15704;48.834;8.736;2023-07-20T04:45:36;6.43;;;2.00;;
28483;SDS011;15704;48.834;8.736;2023-07-20T04:48:03;4.47;;;2.22;;
28483;SDS011;15704;48.834;8.736;2023-07-20T04:50:33;5.20;;;1.90;;
28483;SDS011;15704;48.834;8.736;2023-07-20T04:53:00;7.63;;;1.90;;
28483;SDS011;15704;48.834;8.736;2023-07-20T04:55:28;3.75;;;1.58;;
28483;SDS011;15704;48.834;8.736;2023-07-20T04:57:55;3.95;;;1.73;;
28483;SDS011;15704;48.834;8.736;2023-07-20T05:00:22;3.30;;;1.50;;
28483;SDS011;15704;48.834;8.736;2023-07-20T05:02:49;7.65;;;2.47;;
28483;SDS011;15704;48.834;8.736;2023-07-20T05:05:16;3.25;;;1.88;;
28483;SDS011;15704;48.834;8.736;2023-07-20T05:07:43;3.55;;;1.98;;
28483;SDS011;15704;48.834;8.736;2023-07-20T05:10:10;3.92;;;1.90;;
28483;SDS011;15704;48.834;8.736;2023-07-20T05:12:37;3.53;;;1.55;;
28483;SDS011;15704;48.834;8.736;2023-07-20T05:15:04;3.10;;;1.60;;
28483;SDS011;15704;48.834;8.736;2023-07-20T05:17:31;3.22;;;1.83;;
28483;SDS011;15704;48.834;8.736;2023-07-20T05:19:58;3.60;;;1.60;;
28483;SDS011;15704;48.834;8.736;2023-07-20T05:22:25;4.28;;;1.50;;
28483;SDS011;15704;48.834;8.736;2023-07-20T05:24:52;5.60;;;1.95;;
28483;SDS011;15704;48.834;8.736;2023-07-20T05:27:18;3.28;;;1.73;;
28483;SDS011;15704;48.834;8.736;2023-07-20T05:29:45;6.78;;;2.20;;
28483;SDS011;15704;48.834;8.736;2023-07-20T05:32:12;10.65;;;1.88;;
28483;SDS011;15704;48.834;8.736;2023-07-20T05:34:40;5.25;;;1.80;;
28483;SDS011;15704;48.834;8.736;2023-07-20T05:37:06;8.10;;;1.63;;
28483;SDS011;15704;48.834;8.736;2023-07-20T05:39:33;6.47;;;2.10;;
28483;SDS011;15704;48.834;8.736;2023-07-20T05:42:00;4.18;;;2.03;;
28483;SDS011;15704;48.834;8.736;2023-07-20T05:44:27;4.50;;;1.75;;
28483;SDS011;15704;48.834;8.736;2023-07-20T05:46:54;4.35;;;1.70;;
28483;SDS011;15704;48.834;8.736;2023-07-20T05:49:23;8.38;;;1.58;;
28483;SDS011;15704;48.834;8.736;2023-07-20T05:51:50;5.82;;;1.90;;
28483;SDS011;15704;48.834;8.736;2023-07-20T05:54:17;5.03;;;1.70;;
28483;SDS011;15704;48.834;8.736;2023-07-20T05:56:45;2.85;;;1.65;;
28483;SDS011;15704;48.834;8.736;2023-07-20T05:59:12;4.63;;;1.63;;
28483;SDS011;15704;48.834;8.736;2023-07-20T06:01:39;5.65;;;1.50;;
28483;SDS011;15704;48.834;8.736;2023-07-20T06:04:05;4.50;;;1.80;;
28483;SDS011;15704;48.834;8.736;2023-07-20T06:06:32;4.53;;;1.70;;
28483;SDS011;15704;48.834;8.736;2023-07-20T06:09:00;4.85;;;1.88;;
28483;SDS011;15704;48.834;8.736;2023-07-20T06:11:30;9.60;;;1.63;;
28483;SDS011;15704;48.834;8.736;2023-07-20T06:13:57;4.35;;;1.77;;
28483;SDS011;15704;48.834;8.736;2023-07-20T06:16:24;5.40;;;1.88;;
28483;SDS011;15704;48.834;8.736;2023-07-20T06:18:51;11.73;;;2.15;;
28483;SDS011;15704;48.834;8.736;2023-07-20T06:21:18;3.65;;;1.88;;
28483;SDS011;15704;48.834;8.736;2023-07-20T06:23:45;6.18;;;1.92;;
28483;SDS011;15704;48.834;8.736;2023-07-20T06:26:12;3.80;;;1.90;;
28483;SDS011;15704;48.834;8.736;2023-07-20T06:28:39;3.33;;;1.60;;
28483;SDS011;15704;48.834;8.736;2023-07-20T06:31:05;3.42;;;1.63;;
28483;SDS011;15704;48.834;8.736;2023-07-20T06:33:32;10.90;;;1.92;;
28483;SDS011;15704;48.834;8.736;2023-07-20T06:36:01;4.35;;;2.03;;
28483;SDS011;15704;48.834;8.736;2023-07-20T06:38:27;3.70;;;1.73;;
28483;SDS011;15704;48.834;8.736;2023-07-20T06:40:57;9.57;;;2.20;;
28483;SDS011;15704;48.834;8.736;2023-07-20T06:43:44;3.65;;;1.55;;
28483;SDS011;15704;48.834;8.736;2023-07-20T06:46:15;8.32;;;2.28;;
28483;SDS011;15704;48.834;8.736;2023-07-20T06:48:42;14.18;;;2.53;;
28483;SDS011;15704;48.834;8.736;2023-07-20T06:51:11;4.82;;;1.90;;
28483;SDS011;15704;48.834;8.736;2023-07-20T06:53:38;5.65;;;1.70;;
28483;SDS011;15704;48.834;8.736;2023-07-20T06:56:05;7.00;;;1.90;;
28483;SDS011;15704;48.834;8.736;2023-07-20T06:58:32;10.73;;;2.13;;
28483;SDS011;15704;48.834;8.736;2023-07-20T07:01:00;6.13;;;2.03;;
28483;SDS011;15704;48.834;8.736;2023-07-20T07:03:32;3.72;;;1.95;;
28483;SDS011;15704;48.834;8.736;2023-07-20T07:06:04;6.65;;;2.20;;
28483;SDS011;15704;48.834;8.736;2023-07-20T07:08:31;7.55;;;2.05;;
28483;SDS011;15704;48.834;8.736;2023-07-20T07:10:58;2.65;;;1.70;;
28483;SDS011;15704;48.834;8.736;2023-07-20T07:13:25;5.65;;;2.20;;
28483;SDS011;15704;48.834;8.736;2023-07-20T07:15:51;11.30;;;2.00;;
28483;SDS011;15704;48.834;8.736;2023-07-20T07:18:18;8.50;;;2.05;;
28483;SDS011;15704;48.834;8.736;2023-07-20T07:20:50;4.22;;;1.90;;
28483;SDS011;15704;48.834;8.736;2023-07-20T07:23:18;6.45;;;2.00;;
28483;SDS011;15704;48.834;8.736;2023-07-20T07:25:45;4.28;;;2.05;;
28483;SDS011;15704;48.834;8.736;2023-07-20T07:28:12;3.75;;;1.80;;
28483;SDS011;15704;48.834;8.736;2023-07-20T07:30:39;5.40;;;2.00;;
28483;SDS011;15704;48.834;8.736;2023-07-20T07:33:06;8.02;;;1.70;;
28483;SDS011;15704;48.834;8.736;2023-07-20T07:35:33;3.40;;;1.98;;
28483;SDS011;15704;48.834;8.736;2023-07-20T07:38:00;3.35;;;2.03;;
28483;SDS011;15704;48.834;8.736;2023-07-20T07:40:44;17.00;;;1.88;;
28483;SDS011;15704;48.834;8.736;2023-07-20T07:43:11;3.22;;;1.88;;
28483;SDS011;15704;48.834;8.736;2023-07-20T07:45:39;3.28;;;1.67;;
28483;SDS011;15704;48.834;8.736;2023-07-20T07:48:06;3.10;;;1.80;;
28483;SDS011;15704;48.834;8.736;2023-07-20T07:50:34;6.38;;;1.67;;
28483;SDS011;15704;48.834;8.736;2023-07-20T07:53:01;7.43;;;1.88;;
28483;SDS011;15704;48.834;8.736;2023-07-20T07:55:29;6.45;;;2.05;;
28483;SDS011;15704;48.834;8.736;2023-07-20T07:57:56;5.15;;;1.88;;
28483;SDS011;15704;48.834;8.736;2023-07-20T08:00:23;3.65;;;1.83;;
28483;SDS011;15704;48.834;8.736;2023-07-20T08:02:50;6.60;;;2.30;;
28483;SDS011;15704;48.834;8.736;2023-07-20T08:05:17;6.75;;;2.13;;
28483;SDS011;15704;48.834;8.736;2023-07-20T08:07:44;5.68;;;1.98;;
28483;SDS011;15704;48.834;8.736;2023-07-20T08:10:11;6.60;;;1.85;;
28483;SDS011;15704;48.834;8.736;2023-07-20T08:12:38;4.20;;;1.92;;
28483;SDS011;15704;48.834;8.736;2023-07-20T08:15:05;4.35;;;1.90;;
28483;SDS011;15704;48.834;8.736;2023-07-20T08:17:32;4.50;;;2.00;;
28483;SDS011;15704;48.834;8.736;2023-07-20T08:20:00;6.38;;;2.10;;
28483;SDS011;15704;48.834;8.736;2023-07-20T08:22:26;5.15;;;1.83;;
28483;SDS011;15704;48.834;8.736;2023-07-20T08:24:53;6.95;;;1.73;;
28483;SDS011;15704;48.834;8.736;2023-07-20T08:27:20;11.95;;;1.95;;
28483;SDS011;15704;48.834;8.736;2023-07-20T08:29:47;3.08;;;1.48;;
28483;SDS011;15704;48.834;8.736;2023-07-20T08:32:14;5.32;;;1.63;;
28483;SDS011;15704;48.834;8.736;2023-07-20T08:34:41;5.07;;;1.92;;
28483;SDS011;15704;48.834;8.736;2023-07-20T08:37:08;5.82;;;1.80;;
28483;SDS011;15704;48.834;8.736;2023-07-20T08:39:36;5.45;;;1.70;;
28483;SDS011;15704;48.834;8.736;2023-07-20T08:42:03;3.65;;;1.38;;
28483;SDS011;15704;48.834;8.736;2023-07-20T08:44:33;5.95;;;1.98;;
28483;SDS011;15704;48.834;8.736;2023-07-20T08:47:01;2.92;;;1.50;;
28483;SDS011;15704;48.834;8.736;2023-07-20T08:49:31;2.75;;;1.75;;
28483;SDS011;15704;48.834;8.736;2023-07-20T08:51:59;9.55;;;1.90;;
28483;SDS011;15704;48.834;8.736;2023-07-20T08:54:27;5.28;;;1.35;;
28483;SDS011;15704;48.834;8.736;2023-07-20T08:57:02;3.95;;;1.65;;
28483;SDS011;15704;48.834;8.736;2023-07-20T08:59:30;7.88;;;1.85;;
28483;SDS011;15704;48.834;8.736;2023-07-20T09:01:58;1.98;;;1.05;;
28483;SDS011;15704;48.834;8.736;2023-07-20T09:04:26;2.33;;;1.20;;
28483;SDS011;15704;48.834;8.736;2023-07-20T09:06:53;4.65;;;1.60;;
28483;SDS011;15704;48.834;8.736;2023-07-20T09:09:19;2.05;;;0.98;;
28483;SDS011;15704;48.834;8.736;2023-07-20T09:11:49;2.50;;;1.52;;
28483;SDS011;15704;48.834;8.736;2023-07-20T09:14:16;1.95;;;1.20;;
28483;SDS011;15704;48.834;8.736;2023-07-20T09:16:46;7.50;;;1.58;;
28483;SDS011;15704;48.834;8.736;2023-07-20T09:21:49;1.40;;;1.27;;
28483;SDS011;15704;48.834;8.736;2023-07-20T09:24:17;4.35;;;1.50;;
28483;SDS011;15704;48.834;8.736;2023-07-20T09:26:47;2.80;;;1.15;;
28483;SDS011;15704;48.834;8.736;2023-07-20T09:29:17;1.52;;;1.17;;
28483;SDS011;15704;48.834;8.736;2023-07-20T09:31:58;10.05;;;1.63;;
28483;SDS011;15704;48.834;8.736;2023-07-20T09:34:32;3.53;;;1.23;;
28483;SDS011;15704;48.834;8.736;2023-07-20T09:37:02;12.13;;;1.33;;
28483;SDS011;15704;48.834;8.736;2023-07-20T09:39:29;3.70;;;1.20;;
28483;SDS011;15704;48.834;8.736;2023-07-20T09:42:00;2.95;;;1.00;;
28483;SDS011;15704;48.834;8.736;2023-07-20T09:44:30;1.35;;;0.90;;
28483;SDS011;15704;48.834;8.736;2023-07-20T09:47:02;2.45;;;0.90;;
28483;SDS011;15704;48.834;8.736;2023-07-20T09:49:30;2.08;;;1.08;;
28483;SDS011;15704;48.834;8.736;2023-07-20T09:52:17;3.10;;;0.98;;
28483;SDS011;15704;48.834;8.736;2023-07-20T09:54:48;7.10;;;1.10;;
28483;SDS011;15704;48.834;8.736;2023-07-20T09:57:16;1.50;;;1.13;;
28483;SDS011;15704;48.834;8.736;2023-07-20T09:59:43;1.95;;;1.10;;
28483;SDS011;15704;48.834;8.736;2023-07-20T10:02:31;1.67;;;1.10;;
28483;SDS011;15704;48.834;8.736;2023-07-20T10:05:01;1.08;;;0.95;;
28483;SDS011;15704;48.834;8.736;2023-07-20T10:07:34;5.22;;;1.08;;
28483;SDS011;15704;48.834;8.736;2023-07-20T10:10:05;1.20;;;0.85;;
28483;SDS011;15704;48.834;8.736;2023-07-20T10:12:36;1.63;;;1.10;;
28483;SDS011;15704;48.834;8.736;2023-07-20T10:15:10;3.95;;;1.35;;
28483;SDS011;15704;48.834;8.736;2023-07-20T10:17:40;1.30;;;0.82;;
28483;SDS011;15704;48.834;8.736;2023-07-20T10:20:27;3.60;;;1.25;;
28483;SDS011;15704;48.834;8.736;2023-07-20T10:22:56;3.35;;;1.20;;
28483;SDS011;15704;48.834;8.736;2023-07-20T10:25:23;2.63;;;1.05;;
28483;SDS011;15704;48.834;8.736;2023-07-20T10:27:50;2.67;;;1.30;;
28483;SDS011;15704;48.834;8.736;2023-07-20T10:30:17;3.13;;;1.00;;
28483;SDS011;15704;48.834;8.736;2023-07-20T10:32:46;1.88;;;1.00;;
28483;SDS011;15704;48.834;8.736;2023-07-20T10:35:15;2.95;;;1.30;;
28483;SDS011;15704;48.834;8.736;2023-07-20T10:43:01;3.30;;;1.10;;
28483;SDS011;15704;48.834;8.736;2023-07-20T10:48:24;1.20;;;0.90;;
28483;SDS011;15704;48.834;8.736;2023-07-20T10:53:47;2.58;;;1.00;;
28483;SDS011;15704;48.834;8.736;2023-07-20T10:56:20;5.10;;;1.60;;
28483;SDS011;15704;48.834;8.736;2023-07-20T10:58:48;2.72;;;1.20;;
28483;SDS011;15704;48.834;8.736;2023-07-20T11:01:16;2.60;;;1.10;;
28483;SDS011;15704;48.834;8.736;2023-07-20T11:03:48;5.13;;;1.08;;
28483;SDS011;15704;48.834;8.736;2023-07-20T11:08:55;4.28;;;1.08;;
28483;SDS011;15704;48.834;8.736;2023-07-20T11:11:35;1.75;;;1.00;;
28483;SDS011;15704;48.834;8.736;2023-07-20T11:14:05;5.53;;;1.20;;
28483;SDS011;15704;48.834;8.736;2023-07-20T11:16:43;1.27;;;0.93;;
28483;SDS011;15704;48.834;8.736;2023-07-20T11:19:18;1.02;;;0.88;;
28483;SDS011;15704;48.834;8.736;2023-07-20T11:21:50;1.27;;;0.93;;
28483;SDS011;15704;48.834;8.736;2023-07-20T11:24:26;1.83;;;0.90;;
28483;SDS011;15704;48.834;8.736;2023-07-20T11:26:54;2.13;;;1.08;;
28483;SDS011;15704;48.834;8.736;2023-07-20T11:29:21;1.52;;;0.90;;
28483;SDS011;15704;48.834;8.736;2023-07-20T11:31:57;2.03;;;0.90;;
28483;SDS011;15704;48.834;8.736;2023-07-20T11:34:29;0.93;;;0.90;;
28483;SDS011;15704;48.834;8.736;2023-07-20T11:36:57;2.60;;;1.00;;
28483;SDS011;15704;48.834;8.736;2023-07-20T11:39:27;4.10;;;0.90;;
28483;SDS011;15704;48.834;8.736;2023-07-20T11:41:55;1.23;;;1.00;;
28483;SDS011;15704;48.834;8.736;2023-07-20T11:44:24;2.55;;;0.90;;
28483;SDS011;15704;48.834;8.736;2023-07-20T11:49:34;3.92;;;1.00;;
28483;SDS011;15704;48.834;8.736;2023-07-20T11:52:06;1.67;;;1.05;;
28483;SDS011;15704;48.834;8.736;2023-07-20T11:54:35;2.50;;;1.13;;
28483;SDS011;15704;48.834;8.736;2023-07-20T11:57:04;1.65;;;1.05;;
28483;SDS011;15704;48.834;8.736;2023-07-20T11:59:31;2.63;;;0.90;;
28483;SDS011;15704;48.834;8.736;2023-07-20T12:02:02;1.60;;;1.00;;
28483;SDS011;15704;48.834;8.736;2023-07-20T12:04:31;1.20;;;1.10;;
28483;SDS011;15704;48.834;8.736;2023-07-20T12:06:59;3.67;;;1.30;;
28483;SDS011;15704;48.834;8.736;2023-07-20T12:09:26;2.15;;;1.00;;
28483;SDS011;15704;48.834;8.736;2023-07-20T12:12:11;5.80;;;1.40;;
28483;SDS011;15704;48.834;8.736;2023-07-20T12:14:38;1.98;;;1.20;;
28483;SDS011;15704;48.834;8.736;2023-07-20T12:17:07;0.88;;;0.75;;
28483;SDS011;15704;48.834;8.736;2023-07-20T12:19:38;3.42;;;1.02;;
28483;SDS011;15704;48.834;8.736;2023-07-20T12:22:06;4.57;;;1.27;;
28483;SDS011;15704;48.834;8.736;2023-07-20T12:24:34;1.65;;;0.90;;
28483;SDS011;15704;48.834;8.736;2023-07-20T12:27:01;2.47;;;1.30;;
28483;SDS011;15704;48.834;8.736;2023-07-20T12:29:28;1.33;;;0.80;;
28483;SDS011;15704;48.834;8.736;2023-07-20T12:31:55;1.98;;;0.95;;
28483;SDS011;15704;48.834;8.736;2023-07-20T12:34:21;3.47;;;0.80;;
28483;SDS011;15704;48.834;8.736;2023-07-20T12:36:48;3.35;;;1.13;;
28483;SDS011;15704;48.834;8.736;2023-07-20T12:39:15;3.08;;;0.90;;
28483;SDS011;15704;48.834;8.736;2023-07-20T12:41:42;2.58;;;1.10;;
28483;SDS011;15704;48.834;8.736;2023-07-20T12:44:08;0.98;;;0.70;;
28483;SDS011;15704;48.834;8.736;2023-07-20T12:46:35;1.67;;;0.95;;
28483;SDS011;15704;48.834;8.736;2023-07-20T12:49:03;1.42;;;0.90;;
28483;SDS011;15704;48.834;8.736;2023-07-20T12:51:30;2.35;;;0.90;;
28483;SDS011;15704;48.834;8.736;2023-07-20T12:53:57;1.15;;;0.90;;
28483;SDS011;15704;48.834;8.736;2023-07-20T12:56:23;1.70;;;0.93;;
28483;SDS011;15704;48.834;8.736;2023-07-20T12:58:53;1.13;;;0.82;;
28483;SDS011;15704;48.834;8.736;2023-07-20T13:01:20;1.40;;;0.85;;
28483;SDS011;15704;48.834;8.736;2023-07-20T13:03:47;1.52;;;0.85;;
28483;SDS011;15704;48.834;8.736;2023-07-20T13:06:17;2.08;;;0.95;;
28483;SDS011;15704;48.834;8.736;2023-07-20T13:08:46;1.83;;;0.85;;
28483;SDS011;15704;48.834;8.736;2023-07-20T13:11:13;5.68;;;0.63;;
28483;SDS011;15704;48.834;8.736;2023-07-20T13:13:40;1.20;;;0.85;;
28483;SDS011;15704;48.834;8.736;2023-07-20T13:16:07;1.50;;;1.17;;
28483;SDS011;15704;48.834;8.736;2023-07-20T13:18:33;3.20;;;1.55;;
28483;SDS011;15704;48.834;8.736;2023-07-20T13:21:01;3.85;;;0.80;;
28483;SDS011;15704;48.834;8.736;2023-07-20T13:23:28;3.13;;;1.10;;
28483;SDS011;15704;48.834;8.736;2023-07-20T13:25:55;7.30;;;1.08;;
28483;SDS011;15704;48.834;8.736;2023-07-20T13:28:22;2.75;;;1.05;;
28483;SDS011;15704;48.834;8.736;2023-07-20T13:30:48;2.22;;;1.00;;
28483;SDS011;15704;48.834;8.736;2023-07-20T13:33:15;7.13;;;0.93;;
28483;SDS011;15704;48.834;8.736;2023-07-20T13:35:43;2.63;;;1.25;;
28483;SDS011;15704;48.834;8.736;2023-07-20T13:38:13;1.67;;;0.93;;
28483;SDS011;15704;48.834;8.736;2023-07-20T13:40:40;1.98;;;1.20;;
28483;SDS011;15704;48.834;8.736;2023-07-20T13:43:07;1.70;;;1.00;;
28483;SDS011;15704;48.834;8.736;2023-07-20T13:45:33;1.58;;;0.82;;
28483;SDS011;15704;48.834;8.736;2023-07-20T13:48:00;1.40;;;1.00;;
28483;SDS011;15704;48.834;8.736;2023-07-20T13:50:31;3.13;;;1.02;;
28483;SDS011;15704;48.834;8.736;2023-07-20T13:53:01;1.42;;;1.05;;
28483;SDS011;15704;48.834;8.736;2023-07-20T13:55:32;1.60;;;1.08;;
28483;SDS011;15704;48.834;8.736;2023-07-20T13:58:02;4.13;;;1.27;;
28483;SDS011;15704;48.834;8.736;2023-07-20T14:00:29;3.35;;;0.95;;
28483;SDS011;15704;48.834;8.736;2023-07-20T14:03:00;12.20;;;1.00;;
28483;SDS011;15704;48.834;8.736;2023-07-20T14:05:30;4.15;;;1.10;;
28483;SDS011;15704;48.834;8.736;2023-07-20T14:07:59;2.13;;;1.05;;
28483;SDS011;15704;48.834;8.736;2023-07-20T14:10:26;3.53;;;1.15;;
28483;SDS011;15704;48.834;8.736;2023-07-20T14:12:53;1.83;;;1.20;;
28483;SDS011;15704;48.834;8.736;2023-07-20T14:15:20;1.77;;;1.00;;
28483;SDS011;15704;48.834;8.736;2023-07-20T14:17:47;1.98;;;1.00;;
28483;SDS011;15704;48.834;8.736;2023-07-20T14:20:13;2.83;;;1.33;;
28483;SDS011;15704;48.834;8.736;2023-07-20T14:22:43;3.72;;;1.17;;
28483;SDS011;15704;48.834;8.736;2023-07-20T14:25:11;2.03;;;1.00;;
28483;SDS011;15704;48.834;8.736;2023-07-20T14:27:37;2.13;;;0.90;;
28483;SDS011;15704;48.834;8.736;2023-07-20T14:30:04;6.07;;;1.13;;
28483;SDS011;15704;48.834;8.736;2023-07-20T14:32:32;2.20;;;1.20;;
28483;SDS011;15704;48.834;8.736;2023-07-20T14:35:00;1.30;;;0.80;;
28483;SDS011;15704;48.834;8.736;2023-07-20T14:37:27;1.45;;;0.85;;
28483;SDS011;15704;48.834;8.736;2023-07-20T14:39:54;2.28;;;1.10;;
28483;SDS011;15704;48.834;8.736;2023-07-20T14:42:21;1.77;;;0.85;;
28483;SDS011;15704;48.834;8.736;2023-07-20T14:44:48;1.10;;;0.90;;
28483;SDS011;15704;48.834;8.736;2023-07-20T14:47:15;1.58;;;1.05;;
28483;SDS011;15704;48.834;8.736;2023-07-20T14:49:42;2.25;;;1.08;;
28483;SDS011;15704;48.834;8.736;2023-07-20T14:52:10;4.90;;;1.25;;
28483;SDS011;15704;48.834;8.736;2023-07-20T14:54:39;4.28;;;1.00;;
28483;SDS011;15704;48.834;8.736;2023-07-20T14:57:06;4.10;;;1.00;;
28483;SDS011;15704;48.834;8.736;2023-07-20T14:59:40;1.50;;;0.90;;
28483;SDS011;15704;48.834;8.736;2023-07-20T15:02:07;2.00;;;0.85;;
28483;SDS011;15704;48.834;8.736;2023-07-20T15:04:34;10.13;;;1.35;;
28483;SDS011;15704;48.834;8.736;2023-07-20T15:07:01;1.98;;;1.02;;
28483;SDS011;15704;48.834;8.736;2023-07-20T15:09:29;3.45;;;1.00;;
28483;SDS011;15704;48.834;8.736;2023-07-20T15:11:56;1.88;;;1.13;;
28483;SDS011;15704;48.834;8.736;2023-07-20T15:14:22;2.47;;;1.23;;
28483;SDS011;15704;48.834;8.736;2023-07-20T15:16:49;1.23;;;1.00;;
28483;SDS011;15704;48.834;8.736;2023-07-20T15:19:16;1.77;;;1.20;;
28483;SDS011;15704;48.834;8.736;2023-07-20T15:21:43;1.23;;;0.90;;
28483;SDS011;15704;48.834;8.736;2023-07-20T15:24:10;6.65;;;1.20;;
28483;SDS011;15704;48.834;8.736;2023-07-20T15:26:37;3.33;;;0.93;;
28483;SDS011;15704;48.834;8.736;2023-07-20T15:29:04;1.05;;;0.90;;